createdAt,value
2022-12-09T00:02:18.956Z,45.65
2022-12-09T00:04:45.804Z,45.56
2022-12-09T00:07:12.371Z,45.52
2022-12-09T00:09:38.775Z,45.48
2022-12-09T00:12:05.123Z,45.34
2022-12-09T00:14:31.453Z,45.49
2022-12-09T00:16:57.827Z,45.56
2022-12-09T00:19:24.177Z,45.49
2022-12-09T00:21:50.522Z,45.51
2022-12-09T00:24:17.091Z,45.58
2022-12-09T00:26:43.530Z,45.44
2022-12-09T00:29:10.392Z,45.31
2022-12-09T00:31:37.694Z,45.16
2022-12-09T00:34:08.050Z,45.38
2022-12-09T00:36:37.266Z,45.65
2022-12-09T00:39:03.644Z,45.39
2022-12-09T00:41:30.135Z,45.27
2022-12-09T00:43:56.692Z,45.71
2022-12-09T00:46:23.240Z,45.73
2022-12-09T00:48:49.622Z,45.56
2022-12-09T00:51:16.594Z,45.50
2022-12-09T00:53:43.093Z,45.64
2022-12-09T00:56:09.512Z,45.68
2022-12-09T00:58:35.872Z,45.67
2022-12-09T01:01:02.397Z,45.58
2022-12-09T01:03:28.944Z,45.36
2022-12-09T01:05:55.406Z,45.48
2022-12-09T01:08:21.782Z,45.41
2022-12-09T01:10:48.222Z,45.20
2022-12-09T01:13:14.963Z,45.33
2022-12-09T01:15:41.652Z,45.60
2022-12-09T01:18:08.066Z,45.63
2022-12-09T01:20:34.415Z,45.72
2022-12-09T01:23:00.741Z,45.33
2022-12-09T01:25:27.098Z,45.81
2022-12-09T01:27:53.744Z,45.82
2022-12-09T01:30:20.447Z,45.76
2022-12-09T01:32:47.185Z,45.43
2022-12-09T01:35:13.913Z,45.47
2022-12-09T01:37:40.291Z,45.60
2022-12-09T01:40:07.965Z,45.57
2022-12-09T01:42:34.667Z,45.68
2022-12-09T01:45:19.894Z,45.38
2022-12-09T01:47:49.806Z,45.31
2022-12-09T01:50:16.205Z,45.61
2022-12-09T01:52:42.661Z,45.93
2022-12-09T01:55:09.063Z,45.58
2022-12-09T01:57:35.808Z,45.59
2022-12-09T02:00:02.209Z,45.65
2022-12-09T02:02:28.906Z,45.59
2022-12-09T02:04:55.738Z,45.76
2022-12-09T02:07:22.559Z,45.56
2022-12-09T02:09:53.220Z,45.82
2022-12-09T02:12:30.537Z,45.69
2022-12-09T02:15:01.537Z,45.71
2022-12-09T02:18:00.416Z,45.58
2022-12-09T02:20:39.033Z,45.63
2022-12-09T02:23:07.798Z,45.70
2022-12-09T02:25:36.994Z,45.49
2022-12-09T02:28:18.543Z,45.52
2022-12-09T02:31:04.363Z,45.72
2022-12-09T02:33:56.372Z,45.82
2022-12-09T02:36:23.981Z,45.94
2022-12-09T02:38:51.049Z,45.82
2022-12-09T02:41:18.339Z,45.69
2022-12-09T02:43:59.118Z,45.77
2022-12-09T02:46:29.637Z,45.90
2022-12-09T02:48:57.179Z,45.70
2022-12-09T02:51:24.104Z,45.85
2022-12-09T02:53:52.587Z,45.62
2022-12-09T02:56:19.291Z,45.55
2022-12-09T02:58:45.767Z,45.84
2022-12-09T03:01:21.142Z,45.80
2022-12-09T03:03:48.133Z,46.00
2022-12-09T03:06:14.584Z,46.07
2022-12-09T03:08:43.434Z,45.81
2022-12-09T03:11:10.713Z,45.79
2022-12-09T03:13:42.353Z,46.00
2022-12-09T03:16:20.958Z,45.90
2022-12-09T03:18:48.470Z,45.80
2022-12-09T03:21:15.124Z,45.88
2022-12-09T03:23:42.086Z,45.80
2022-12-09T03:26:08.433Z,45.95
2022-12-09T03:28:38.884Z,45.80
2022-12-09T03:31:06.269Z,45.77
2022-12-09T03:33:32.697Z,45.91
2022-12-09T03:36:00.820Z,45.79
2022-12-09T03:38:28.220Z,45.75
2022-12-09T03:40:57.588Z,45.67
2022-12-09T03:43:24.629Z,45.67
2022-12-09T03:45:54.557Z,45.69
2022-12-09T03:48:21.030Z,45.87
2022-12-09T03:50:52.350Z,46.02
2022-12-09T03:53:20.649Z,46.06
2022-12-09T03:56:01.314Z,46.05
2022-12-09T03:58:27.794Z,45.77
2022-12-09T04:00:54.280Z,45.89
2022-12-09T04:03:21.467Z,45.77
2022-12-09T04:05:47.878Z,45.93
2022-12-09T04:08:14.587Z,45.94
2022-12-09T04:10:41.193Z,45.84
2022-12-09T04:13:08.021Z,46.00
2022-12-09T04:15:34.674Z,45.98
2022-12-09T04:18:01.520Z,45.90
2022-12-09T04:20:28.046Z,45.82
2022-12-09T04:22:55.608Z,45.80
2022-12-09T04:25:22.280Z,45.90
2022-12-09T04:27:49.364Z,45.77
2022-12-09T04:30:17.072Z,45.83
2022-12-09T04:32:44.089Z,45.94
2022-12-09T04:35:10.678Z,45.77
2022-12-09T04:37:37.494Z,45.70
2022-12-09T04:40:07.586Z,45.68
2022-12-09T04:42:34.208Z,45.65
2022-12-09T04:45:00.926Z,45.75
2022-12-09T04:47:27.370Z,45.63
2022-12-09T04:49:54.267Z,45.68
2022-12-09T04:52:20.679Z,46.04
2022-12-09T04:54:48.704Z,46.03
2022-12-09T04:57:15.207Z,46.09
2022-12-09T04:59:41.579Z,46.25
2022-12-09T05:02:08.583Z,45.86
2022-12-09T05:04:35.316Z,45.93
2022-12-09T05:07:01.814Z,45.76
2022-12-09T05:09:28.750Z,45.80
2022-12-09T05:11:56.902Z,45.78
2022-12-09T05:14:23.627Z,45.61
2022-12-09T05:16:50.257Z,45.79
2022-12-09T05:19:16.818Z,46.11
2022-12-09T05:21:44.100Z,46.17
2022-12-09T05:24:10.704Z,45.21
2022-12-09T05:26:37.310Z,45.18
2022-12-09T05:29:03.712Z,45.35
2022-12-09T05:31:30.398Z,45.26
2022-12-09T05:33:57.137Z,44.87
2022-12-09T05:36:29.748Z,44.75
2022-12-09T05:38:56.498Z,44.96
2022-12-09T05:41:23.147Z,45.11
2022-12-09T05:43:50.049Z,45.18
2022-12-09T05:46:16.753Z,45.02
2022-12-09T05:48:43.452Z,45.13
2022-12-09T05:51:15.455Z,45.15
2022-12-09T05:53:42.161Z,44.96
2022-12-09T05:56:08.612Z,45.23
2022-12-09T05:58:35.634Z,45.38
2022-12-09T06:01:08.064Z,45.32
2022-12-09T06:03:35.167Z,45.24
2022-12-09T06:06:06.315Z,45.42
2022-12-09T06:08:33.345Z,45.52
2022-12-09T06:10:59.925Z,45.18
2022-12-09T06:13:27.366Z,45.40
2022-12-09T06:15:53.913Z,45.32
2022-12-09T06:18:20.688Z,45.32
2022-12-09T06:20:47.237Z,45.32
2022-12-09T06:23:13.679Z,45.42
2022-12-09T06:25:42.900Z,45.38
2022-12-09T06:28:09.373Z,45.63
2022-12-09T06:30:36.019Z,45.67
2022-12-09T06:33:04.346Z,45.82
2022-12-09T06:35:36.172Z,45.85
2022-12-09T06:38:02.977Z,46.01
2022-12-09T06:40:29.565Z,45.85
2022-12-09T06:42:56.040Z,46.07
2022-12-09T06:45:22.444Z,45.79
2022-12-09T06:47:49.329Z,45.96
2022-12-09T06:50:16.192Z,45.74
2022-12-09T06:52:42.914Z,45.84
2022-12-09T06:55:10.034Z,45.85
2022-12-09T06:57:36.915Z,44.53
2022-12-09T07:00:04.268Z,42.61
2022-12-09T07:02:35.557Z,40.26
2022-12-09T07:05:03.304Z,35.65
2022-12-09T07:07:30.487Z,35.72
2022-12-09T07:09:57.133Z,36.10
2022-12-09T07:12:24.072Z,36.71
2022-12-09T07:14:50.451Z,38.81
2022-12-09T07:17:17.853Z,40.49
2022-12-09T07:19:44.922Z,40.77
2022-12-09T07:22:11.491Z,40.75
2022-12-09T07:24:38.326Z,41.57
2022-12-09T07:27:10.733Z,41.70
2022-12-09T07:29:38.397Z,41.44
2022-12-09T07:32:04.900Z,41.99
2022-12-09T07:34:32.338Z,41.90
2022-12-09T07:36:59.198Z,42.47
2022-12-09T07:39:25.822Z,42.34
2022-12-09T07:41:58.403Z,42.68
2022-12-09T07:44:28.963Z,42.82
2022-12-09T07:46:55.743Z,42.65
2022-12-09T07:49:22.477Z,42.67
2022-12-09T07:51:48.952Z,42.90
2022-12-09T07:54:15.720Z,43.05
2022-12-09T07:56:42.241Z,43.02
2022-12-09T07:59:09.069Z,43.06
2022-12-09T08:01:35.714Z,43.37
2022-12-09T08:04:02.594Z,43.38
2022-12-09T08:06:29.638Z,43.41
2022-12-09T08:09:00.027Z,43.50
2022-12-09T08:11:27.482Z,43.43
2022-12-09T08:13:55.800Z,43.48
2022-12-09T08:16:22.788Z,43.41
2022-12-09T08:18:49.743Z,43.55
2022-12-09T08:21:17.523Z,43.72
2022-12-09T08:23:44.152Z,43.51
2022-12-09T08:26:11.245Z,43.66
2022-12-09T08:28:37.935Z,43.69
2022-12-09T08:31:11.570Z,43.92
2022-12-09T08:33:38.297Z,43.76
2022-12-09T08:36:07.235Z,44.01
2022-12-09T08:38:33.998Z,43.94
2022-12-09T08:41:07.996Z,43.79
2022-12-09T08:43:34.408Z,43.83
2022-12-09T08:46:01.085Z,44.09
2022-12-09T08:48:27.988Z,44.03
2022-12-09T08:50:54.845Z,43.96
2022-12-09T08:53:21.598Z,44.00
2022-12-09T08:55:48.316Z,43.83
2022-12-09T08:58:14.826Z,44.03
2022-12-09T09:00:41.181Z,43.91
2022-12-09T09:03:07.726Z,44.01
2022-12-09T09:05:34.447Z,44.01
2022-12-09T09:08:01.738Z,44.01
2022-12-09T09:10:29.710Z,44.08
2022-12-09T09:12:56.835Z,43.87
2022-12-09T09:15:23.290Z,44.15
2022-12-09T09:17:52.278Z,44.17
2022-12-09T09:20:19.205Z,44.14
2022-12-09T09:22:45.717Z,43.97
2022-12-09T09:25:12.932Z,44.05
2022-12-09T09:27:39.667Z,44.33
2022-12-09T09:30:07.652Z,44.12
2022-12-09T09:32:34.599Z,44.24
2022-12-09T09:35:01.461Z,44.32
2022-12-09T09:37:28.475Z,44.06
2022-12-09T09:39:54.845Z,44.27
2022-12-09T09:42:23.481Z,44.02
2022-12-09T09:44:50.763Z,44.34
2022-12-09T09:47:25.953Z,44.22
2022-12-09T09:49:55.600Z,44.25
2022-12-09T09:52:26.114Z,44.41
2022-12-09T09:54:54.842Z,44.15
2022-12-09T09:57:32.675Z,44.35
2022-12-09T10:00:09.744Z,44.20
2022-12-09T10:02:45.405Z,44.24
2022-12-09T10:05:14.439Z,44.19
2022-12-09T10:07:42.276Z,44.22
2022-12-09T10:10:25.961Z,44.10
2022-12-09T10:13:05.045Z,44.12
2022-12-09T10:15:35.023Z,44.33
2022-12-09T10:18:13.910Z,44.10
2022-12-09T10:20:40.907Z,44.38
2022-12-09T10:23:11.932Z,44.29
2022-12-09T10:25:39.249Z,44.33
2022-12-09T10:28:07.286Z,44.22
2022-12-09T10:30:41.760Z,44.20
2022-12-09T10:33:11.900Z,44.10
2022-12-09T10:35:39.660Z,44.29
2022-12-09T10:38:10.372Z,44.40
2022-12-09T10:40:45.951Z,44.38
2022-12-09T10:43:35.302Z,44.14
2022-12-09T10:46:19.687Z,44.31
2022-12-09T10:48:46.728Z,44.33
2022-12-09T10:51:27.407Z,44.18
2022-12-09T10:53:58.590Z,44.37
2022-12-09T10:56:25.973Z,44.23
2022-12-09T10:59:11.538Z,44.22
2022-12-09T11:01:54.943Z,44.20
2022-12-09T11:04:22.826Z,44.33
2022-12-09T11:06:58.839Z,44.14
2022-12-09T11:09:30.132Z,44.37
2022-12-09T11:11:57.657Z,44.30
2022-12-09T11:14:26.435Z,44.28
2022-12-09T11:16:53.784Z,44.30
2022-12-09T11:19:36.175Z,44.33
2022-12-09T11:22:16.050Z,44.35
2022-12-09T11:24:42.646Z,44.35
2022-12-09T11:27:26.010Z,44.39
2022-12-09T11:30:11.192Z,44.11
2022-12-09T11:32:53.780Z,44.42
2022-12-09T11:35:21.501Z,44.38
2022-12-09T11:37:47.983Z,44.40
2022-12-09T11:40:17.291Z,44.35
2022-12-09T11:42:43.599Z,44.32
2022-12-09T11:45:20.134Z,44.12
2022-12-09T11:50:33.404Z,44.35
2022-12-09T11:53:08.751Z,44.30
2022-12-09T11:55:35.718Z,44.47
2022-12-09T11:58:03.259Z,44.48
2022-12-09T12:00:37.473Z,44.26
2022-12-09T12:03:04.810Z,44.39
2022-12-09T12:05:37.607Z,44.45
2022-12-09T12:08:22.792Z,44.37
2022-12-09T12:11:03.295Z,44.44
2022-12-09T12:13:31.957Z,44.16
2022-12-09T12:16:17.005Z,44.37
2022-12-09T12:18:48.336Z,44.17
2022-12-09T12:21:17.474Z,44.41
2022-12-09T12:23:47.622Z,44.32
2022-12-09T12:26:19.209Z,44.26
2022-12-09T12:29:07.569Z,44.25
2022-12-09T12:31:43.005Z,44.32
2022-12-09T12:34:28.259Z,44.14
2022-12-09T12:37:00.650Z,44.40
2022-12-09T12:39:49.165Z,44.14
2022-12-09T12:42:23.379Z,44.27
2022-12-09T12:45:31.653Z,43.50
2022-12-09T12:48:11.982Z,43.66
2022-12-09T12:50:50.329Z,43.58
2022-12-09T12:53:29.493Z,43.81
2022-12-09T12:56:00.260Z,43.77
2022-12-09T12:58:35.383Z,44.13
2022-12-09T13:01:04.797Z,44.21
2022-12-09T13:03:46.425Z,44.00
2022-12-09T13:06:13.733Z,43.78
2022-12-09T13:08:59.854Z,43.99
2022-12-09T13:11:37.574Z,44.00
2022-12-09T13:14:04.977Z,44.27
2022-12-09T13:16:32.580Z,44.27
2022-12-09T13:19:02.466Z,44.06
2022-12-09T13:21:28.797Z,44.05
2022-12-09T13:23:57.888Z,44.48
2022-12-09T13:26:30.308Z,42.51
2022-12-09T13:28:59.654Z,42.17
2022-12-09T13:31:28.033Z,41.75
2022-12-09T13:34:04.964Z,41.71
2022-12-09T13:36:39.640Z,41.87
2022-12-09T13:39:09.118Z,41.95
2022-12-09T13:41:56.093Z,42.17
2022-12-09T13:44:22.409Z,42.35
2022-12-09T13:46:48.924Z,42.71
2022-12-09T13:49:22.966Z,42.58
2022-12-09T13:51:52.615Z,42.84
2022-12-09T13:54:19.489Z,42.78
2022-12-09T13:56:48.161Z,43.09
2022-12-09T13:59:31.128Z,42.96
2022-12-09T14:02:01.485Z,43.22
2022-12-09T14:04:27.793Z,43.26
2022-12-09T14:06:57.132Z,43.34
2022-12-09T14:09:33.577Z,43.38
2022-12-09T14:12:00.718Z,43.38
2022-12-09T14:14:26.962Z,43.47
2022-12-09T14:16:56.990Z,43.60
2022-12-09T14:19:26.401Z,43.53
2022-12-09T14:22:17.937Z,43.76
2022-12-09T14:24:44.624Z,43.81
2022-12-09T14:27:14.674Z,43.90
2022-12-09T14:29:48.782Z,43.60
2022-12-09T14:32:21.233Z,43.65
2022-12-09T14:34:48.625Z,43.91
2022-12-09T14:37:19.036Z,43.70
2022-12-09T14:39:49.465Z,43.71
2022-12-09T14:42:42.094Z,43.95
2022-12-09T14:45:16.889Z,43.93
2022-12-09T14:47:47.482Z,43.96
2022-12-09T14:50:14.899Z,43.99
2022-12-09T14:52:51.781Z,44.09
2022-12-09T14:55:18.126Z,43.89
2022-12-09T14:57:44.821Z,43.94
2022-12-09T15:00:30.090Z,44.01
2022-12-09T15:06:00.135Z,44.07
2022-12-09T15:08:35.851Z,44.23
2022-12-09T15:11:04.940Z,44.14
2022-12-09T15:13:31.257Z,44.18
2022-12-09T15:15:57.600Z,43.91
2022-12-09T15:18:24.538Z,43.99
2022-12-09T15:20:51.819Z,44.22
2022-12-09T15:23:30.392Z,44.03
2022-12-09T15:25:57.676Z,44.24
2022-12-09T15:28:26.858Z,44.19
2022-12-09T15:30:57.752Z,44.29
2022-12-09T15:33:24.178Z,44.11
2022-12-09T15:35:50.455Z,44.17
2022-12-09T15:38:16.791Z,44.16
2022-12-09T15:41:03.079Z,44.24
2022-12-09T15:43:29.453Z,44.34
2022-12-09T15:45:55.790Z,44.29
2022-12-09T15:48:22.858Z,44.29
2022-12-09T15:50:54.050Z,44.05
2022-12-09T15:53:27.969Z,44.41
2022-12-09T15:56:13.712Z,44.30
2022-12-09T15:58:40.863Z,44.29
2022-12-09T16:01:07.180Z,44.17
2022-12-09T16:03:33.798Z,44.29
2022-12-09T16:06:01.135Z,44.15
2022-12-09T16:08:30.969Z,44.18
2022-12-09T16:10:58.483Z,44.29
2022-12-09T16:13:25.232Z,44.20
2022-12-09T16:15:52.728Z,44.43
2022-12-09T16:18:23.417Z,44.41
2022-12-09T16:21:16.203Z,44.42
2022-12-09T16:23:43.016Z,44.13
2022-12-09T16:26:29.469Z,44.06
2022-12-09T16:28:56.723Z,44.32
2022-12-09T16:31:23.129Z,44.17
2022-12-09T16:33:49.595Z,44.19
2022-12-09T16:36:20.701Z,44.24
2022-12-09T16:39:04.044Z,44.40
2022-12-09T16:41:49.118Z,44.36
2022-12-09T16:44:17.815Z,44.37
2022-12-09T16:46:44.142Z,44.35
2022-12-09T16:49:10.482Z,44.17
2022-12-09T16:51:37.103Z,44.33
2022-12-09T16:54:03.731Z,44.24
2022-12-09T16:56:30.645Z,44.35
2022-12-09T16:58:56.955Z,44.48
2022-12-09T17:01:24.297Z,44.42
2022-12-09T17:03:52.308Z,44.40
2022-12-09T17:06:18.776Z,44.39
2022-12-09T17:08:45.149Z,44.40
2022-12-09T17:11:11.465Z,44.25
2022-12-09T17:13:37.847Z,44.40
2022-12-09T17:16:04.796Z,44.46
2022-12-09T17:18:31.217Z,44.25
2022-12-09T17:21:01.369Z,44.42
2022-12-09T17:23:27.694Z,44.47
2022-12-09T17:26:00.732Z,44.34
2022-12-09T17:28:29.992Z,44.36
2022-12-09T17:30:56.901Z,44.29
2022-12-09T17:33:26.286Z,44.62
2022-12-09T17:35:52.716Z,44.39
2022-12-09T17:38:19.077Z,44.37
2022-12-09T17:40:45.402Z,44.45
2022-12-09T17:43:11.883Z,44.35
2022-12-09T17:45:42.122Z,44.62
2022-12-09T17:48:08.840Z,44.53
2022-12-09T17:50:36.832Z,44.59
2022-12-09T17:53:03.176Z,44.80
2022-12-09T17:55:29.508Z,44.54
2022-12-09T17:57:55.831Z,44.64
2022-12-09T18:00:22.161Z,45.20
2022-12-09T18:02:48.560Z,45.42
2022-12-09T18:05:14.886Z,45.54
2022-12-09T18:07:41.229Z,45.70
2022-12-09T18:10:07.994Z,46.00
2022-12-09T18:12:34.573Z,46.21
2022-12-09T18:15:00.893Z,46.11
2022-12-09T18:17:27.251Z,46.78
2022-12-09T18:19:53.633Z,46.46
2022-12-09T18:22:19.957Z,46.56
2022-12-09T18:24:46.286Z,46.66
2022-12-09T18:27:12.654Z,46.51
2022-12-09T18:29:41.451Z,46.67
2022-12-09T18:32:07.965Z,44.59
2022-12-09T18:34:35.615Z,45.26
2022-12-09T18:37:02.348Z,45.01
2022-12-09T18:39:28.757Z,45.96
2022-12-09T18:41:55.081Z,45.62
2022-12-09T18:44:21.400Z,46.19
2022-12-09T18:46:48.812Z,46.56
2022-12-09T18:49:19.080Z,46.49
2022-12-09T18:51:45.432Z,46.41
2022-12-09T18:54:15.433Z,46.10
2022-12-09T18:56:41.744Z,45.80
2022-12-09T18:59:09.675Z,45.76
2022-12-09T19:01:39.457Z,45.94
2022-12-09T19:04:06.504Z,45.61
2022-12-09T19:06:34.148Z,45.48
2022-12-09T19:09:02.015Z,46.19
2022-12-09T19:11:28.945Z,46.18
2022-12-09T19:13:55.388Z,46.14
2022-12-09T19:16:21.709Z,45.84
2022-12-09T19:18:48.037Z,45.79
2022-12-09T19:21:15.486Z,45.89
2022-12-09T19:23:42.458Z,46.14
2022-12-09T19:26:16.039Z,46.58
2022-12-09T19:28:46.255Z,46.75
2022-12-09T19:31:16.457Z,46.77
2022-12-09T19:33:42.795Z,47.45
2022-12-09T19:36:09.386Z,46.88
2022-12-09T19:38:35.736Z,46.81
2022-12-09T19:41:02.073Z,46.65
2022-12-09T19:43:28.584Z,46.30
2022-12-09T19:45:54.940Z,46.63
2022-12-09T19:48:21.288Z,46.31
2022-12-09T19:50:47.608Z,46.41
2022-12-09T19:53:13.921Z,46.50
2022-12-09T19:55:40.231Z,46.41
2022-12-09T19:58:08.738Z,46.54
2022-12-09T20:00:41.298Z,46.57
2022-12-09T20:03:08.283Z,46.47
2022-12-09T20:05:34.959Z,46.55
2022-12-09T20:08:01.451Z,46.45
2022-12-09T20:10:28.017Z,46.40
2022-12-09T20:12:54.560Z,46.64
2022-12-09T20:15:21.011Z,46.63
2022-12-09T20:17:47.470Z,46.45
2022-12-09T20:20:13.876Z,47.13
2022-12-09T20:22:40.307Z,47.24
2022-12-09T20:25:07.043Z,47.32
2022-12-09T20:27:33.832Z,47.04
2022-12-09T20:30:00.161Z,46.88
2022-12-09T20:32:26.771Z,46.97
2022-12-09T20:34:53.609Z,47.35
2022-12-09T20:37:20.103Z,46.99
2022-12-09T20:39:46.416Z,46.83
2022-12-09T20:42:12.746Z,46.90
2022-12-09T20:44:42.079Z,46.92
2022-12-09T20:47:08.465Z,46.73
2022-12-09T20:49:34.802Z,47.19
2022-12-09T20:52:01.218Z,46.78
2022-12-09T20:54:27.616Z,46.87
2022-12-09T20:56:54.559Z,47.04
2022-12-09T20:59:20.895Z,46.76
2022-12-09T21:01:47.354Z,46.80
2022-12-09T21:04:14.164Z,46.70
2022-12-09T21:06:40.687Z,46.88
2022-12-09T21:09:08.339Z,46.78
2022-12-09T21:11:34.871Z,46.75
2022-12-09T21:14:01.512Z,46.77
2022-12-09T21:16:28.642Z,46.83
2022-12-09T21:18:55.940Z,46.97
2022-12-09T21:21:22.671Z,46.97
2022-12-09T21:23:50.146Z,46.90
2022-12-09T21:26:17.469Z,47.06
2022-12-09T21:28:44.059Z,47.25
2022-12-09T21:31:11.732Z,47.14
2022-12-09T21:33:38.134Z,47.21
2022-12-09T21:36:05.626Z,47.08
2022-12-09T21:38:31.957Z,47.00
2022-12-09T21:41:01.023Z,47.28
2022-12-09T21:43:27.352Z,47.16
2022-12-09T21:45:53.707Z,47.23
2022-12-09T21:48:20.057Z,47.16
2022-12-09T21:50:53.020Z,47.02
2022-12-09T21:53:19.800Z,47.25
2022-12-09T21:55:46.131Z,47.11
2022-12-09T21:58:12.477Z,47.13
2022-12-09T22:00:38.862Z,46.98
2022-12-09T22:03:05.207Z,46.89
2022-12-09T22:05:34.615Z,46.65
2022-12-09T22:08:00.975Z,46.82
2022-12-09T22:10:27.292Z,46.74
2022-12-09T22:12:53.879Z,46.96
2022-12-09T22:15:20.195Z,46.68
2022-12-09T22:17:46.541Z,46.96
2022-12-09T22:20:54.033Z,46.69
2022-12-09T22:22:59.503Z,46.47
2022-12-09T22:25:25.830Z,46.72
2022-12-09T22:27:52.205Z,46.59
2022-12-09T22:30:18.600Z,46.85
2022-12-09T22:32:50.448Z,46.64
2022-12-09T22:35:17.167Z,46.76
2022-12-09T22:37:44.324Z,46.78
2022-12-09T22:40:11.096Z,46.56
2022-12-09T22:42:37.522Z,46.77
2022-12-09T22:45:04.733Z,46.63
2022-12-09T22:47:31.069Z,46.65
2022-12-09T22:49:57.394Z,46.64
2022-12-09T22:52:23.708Z,46.61
2022-12-09T22:54:50.092Z,46.43
2022-12-09T22:57:16.421Z,46.70
2022-12-09T22:59:43.189Z,46.56
2022-12-09T23:02:09.772Z,46.49
2022-12-09T23:04:36.381Z,46.30
2022-12-09T23:07:02.891Z,46.51
2022-12-09T23:09:29.207Z,46.34
2022-12-09T23:11:55.565Z,46.14
2022-12-09T23:14:22.778Z,46.15
2022-12-09T23:16:49.356Z,46.31
2022-12-09T23:19:15.667Z,46.32
2022-12-09T23:21:42.977Z,46.19
2022-12-09T23:24:13.606Z,46.28
2022-12-09T23:26:40.263Z,46.13
2022-12-09T23:29:07.166Z,46.05
2022-12-09T23:31:33.982Z,46.05
2022-12-09T23:34:00.382Z,46.07
2022-12-09T23:36:30.801Z,46.05
2022-12-09T23:38:57.131Z,46.14
2022-12-09T23:41:23.577Z,46.39
2022-12-09T23:43:49.902Z,46.27
2022-12-09T23:46:17.704Z,46.30
2022-12-09T23:48:44.518Z,46.41
2022-12-09T23:51:21.023Z,46.32
2022-12-09T23:53:47.660Z,46.47
2022-12-09T23:56:14.719Z,46.43
2022-12-09T23:58:41.117Z,46.42
